Morgan Heights, Missouri
Current Conditions -  °F | °C
As of 4:53 PM on Sunday 21 Dec 2014 (Local Time) from KJLN Reporting Station
Overcast Overcast  
Wind Chill: 42°   Ceiling: 4100
Heat Index: 47°   Visibility: 10mi
Dew Point: 38°   Wind: 12mph
Humidity: 71%   Direction: 170°S
Pressure: 29.87"   Gusts: NA
Location:  37.1542°N, 94.2882°W
Report Text: KJLN 212253Z 17010KT 10SM OVC041 08/03 A2987 RMK AO2 SLP116 T00830033 $
Loading
Personal Weather Stations






























Interactive Weather Map New forecast layout! Learn more

10-Day Weather Forecast

Advertisements
Track Severe Weather on mobile